Portada
METAR-TAF:

METAR-TAF

Aeroports :

Vientiane, Laos

latitud: 17-57N, longitud: 102-34E, altitud: 171 m

Observació

L'informe es va fer fa 33 minuts, a les 14:00 UTC
Vent 2 kt del Nord-Oest
Temperatura 22°C
Humitat 73%
Pressió 1016 hPa
Visibilitat: 4000 m
boirina

METAR: VLVT 231400Z 32002KT 4000 BR NSC 22/17 Q1016 NOSIG

Hora: 21:33 (14:33 UTC)

Pronòstic

L'informe es va fer fa 3 hores i 33 minuts, a les 11:00 UTC
Pronòstic vàlid del 23 a les 12 UTC al 24 a les 12 UTC
Vent 4 kt del Sud-Oest
Visibilitat: 4000 m
Escasses núvols a una alçada de 2000 ft
Escasses núvols a una alçada de 5000 ft
boirina

TAF: VLVT 231100Z 2312/2412 22004KT 4000 BR FEW020 FEW050

Observacions i pronòstics meteorològics de més de 4000 aeroports (METAR i TAF).

Les estacions disponibles són els punts grocs i vermells al mapa.

Posi el ratolí al punt desitjat per veure el nom de l'estació.

Feu clic per veure les observacions i els pronòstics meteorològics.

Per canviar el mapa: feu clic els botons verds amb una creu de color negre per apropar; al botó verd amb un guió per allunyar la imatge; o en les fletxes verdes per a mapes adjacents.


METAR-TAF: